^^
Grace C. Lehan Memorial Weather Station Historical Data
Daily Summary for June 22, 2021 Units:  Both    English   Metric
Daily Weekly Monthly Yearly
  High: Low: Average:
Temperature: 75.7 °F /  24.3 °C 60.1 °F /  15.6 °C 68.8 °F /  20.4 °C
Dew Point: 72 °F /  22.2 °C 56.8 °F /  13.8 °C 64.8 °F /  18.2 °C
Humidity: 95% 70.7% 88%
Wind Speed: 5.5mph /  8.9km/h - 0.6mph /  1km/h
Wind Gust: 14mph /  22.5km/h - -
Wind- - WNW
Pressure: 29.82 in /  1009.7 hPa 29.56 in /  1000.9 hPa -
Precipitation: 0.19 in /  4.83 mm    
 
 
Tabular Data for June 22, 2021
Time Temperature Dew Point Pressure Wind Wind Speed Wind Gust Humidity Rainfall Rate (Hourly) solar
00:04 73.6 °F /  23.1 °C 70.2 °F /  21.2 °C 29.58in /  1001.6hPa Calm     89% 0.00in /  0mm 0 W/m2
00:09 73.6 °F /  23.1 °C 70.1 °F /  21.2 °C 29.58in /  1001.6hPa Calm     89% 0.00in /  0mm 0 W/m2
00:14 73.5 °F /  23.1 °C 70 °F /  21.1 °C 29.58in /  1001.6hPa Calm     89% 0.00in /  0mm 0 W/m2
00:19 73.4 °F /  23 °C 70 °F /  21.1 °C 29.58in /  1001.6hPa Calm     89% 0.00in /  0mm 0 W/m2
00:24 73.3 °F /  22.9 °C 69.9 °F /  21.1 °C 29.57in /  1001.2hPa Calm     89% 0.00in /  0mm 0 W/m2
00:29 73.3 °F /  22.9 °C 69.8 °F /  21 °C 29.58in /  1001.6hPa Calm     89% 0.00in /  0mm 0 W/m2
00:34 73.2 °F /  22.9 °C 69.8 °F /  21 °C 29.58in /  1001.6hPa Calm     89% 0.00in /  0mm 0 W/m2
00:39 73.2 °F /  22.9 °C 70.1 °F /  21.2 °C 29.58in /  1001.6hPa Calm     90% 0.00in /  0mm 0 W/m2
00:44 73.2 °F /  22.9 °C 70.1 °F /  21.2 °C 29.58in /  1001.6hPa Calm     90% 0.00in /  0mm 0 W/m2
00:49 73.2 °F /  22.9 °C 70.1 °F /  21.2 °C 29.58in /  1001.6hPa Calm     90% 0.00in /  0mm 0 W/m2
00:54 73.3 °F /  22.9 °C 70.2 °F /  21.2 °C 29.58in /  1001.6hPa Calm     90% 0.00in /  0mm 0 W/m2
00:59 73.3 °F /  22.9 °C 70.1 °F /  21.2 °C 29.59in /  1001.9hPa Calm     90% 0.00in /  0mm 0 W/m2
01:04 73.2 °F /  22.9 °C 70.1 °F /  21.2 °C 29.59in /  1001.9hPa Calm     90% 0.00in /  0mm 0 W/m2
01:09 73.1 °F /  22.8 °C 70 °F /  21.1 °C 29.58in /  1001.6hPa Calm     90% 0.00in /  0mm 0 W/m2
01:14 73 °F /  22.8 °C 69.9 °F /  21.1 °C 29.58in /  1001.6hPa Calm     90% 0.00in /  0mm 0 W/m2
01:19 73 °F /  22.8 °C 69.9 °F /  21.1 °C 29.58in /  1001.6hPa Calm     90% 0.00in /  0mm 0 W/m2
01:24 72.9 °F /  22.7 °C 69.8 °F /  21 °C 29.58in /  1001.6hPa Calm     90% 0.00in /  0mm 0 W/m2
01:29 72.8 °F /  22.7 °C 69.8 °F /  21 °C 29.58in /  1001.6hPa Calm     90.4% 0.00in /  0mm 0 W/m2
01:34 72.7 °F /  22.6 °C 70 °F /  21.1 °C 29.58in /  1001.6hPa Calm     91% 0.00in /  0mm 0 W/m2
01:39 72.6 °F /  22.6 °C 69.9 °F /  21.1 °C 29.58in /  1001.6hPa Calm     91% 0.00in /  0mm 0 W/m2
01:44 72.6 °F /  22.6 °C 69.8 °F /  21 °C 29.57in /  1001.2hPa Calm     91% 0.00in /  0mm 0 W/m2
01:49 72.5 °F /  22.5 °C 69.7 °F /  20.9 °C 29.57in /  1001.2hPa Calm     91% 0.00in /  0mm 0 W/m2
01:54 72.4 °F /  22.4 °C 69.6 °F /  20.9 °C 29.57in /  1001.2hPa Calm     91% 0.00in /  0mm 0 W/m2
01:59 72.4 °F /  22.4 °C 69.6 °F /  20.9 °C 29.57in /  1001.2hPa Calm     91% 0.00in /  0mm 0 W/m2
02:04 72.4 °F /  22.4 °C 69.6 °F /  20.9 °C 29.57in /  1001.2hPa Calm     91% 0.00in /  0mm 0 W/m2
02:09 72.3 °F /  22.4 °C 69.7 °F /  20.9 °C 29.57in /  1001.2hPa Calm     91.7% 0.00in /  0mm 0 W/m2
02:14 72.2 °F /  22.3 °C 69.8 °F /  21 °C 29.57in /  1001.2hPa Calm     92% 0.00in /  0mm 0 W/m2
02:19 72.2 °F /  22.3 °C 69.8 °F /  21 °C 29.57in /  1001.2hPa Calm     92% 0.00in /  0mm 0 W/m2
02:24 72.2 °F /  22.3 °C 69.7 °F /  20.9 °C 29.56in /  1000.9hPa Calm     92% 0.00in /  0mm 0 W/m2
02:29 72.1 °F /  22.3 °C 69.7 °F /  20.9 °C 29.57in /  1001.2hPa Calm     92% 0.00in /  0mm 0 W/m2
02:34 72.1 °F /  22.3 °C 69.7 °F /  20.9 °C 29.57in /  1001.2hPa Calm     92% 0.00in /  0mm 0 W/m2
02:39 72.1 °F /  22.3 °C 69.7 °F /  20.9 °C 29.57in /  1001.2hPa Calm     92% 0.00in /  0mm 0 W/m2
02:44 72.1 °F /  22.3 °C 69.7 °F /  20.9 °C 29.57in /  1001.2hPa Calm     92% 0.00in /  0mm 0 W/m2
02:49 72.1 °F /  22.3 °C 69.7 °F /  20.9 °C 29.57in /  1001.2hPa Calm     92% 0.00in /  0mm 0 W/m2
02:54 72.1 °F /  22.3 °C 69.7 °F /  20.9 °C 29.57in /  1001.2hPa Calm     92% 0.00in /  0mm 0 W/m2
02:59 72.1 °F /  22.3 °C 69.7 °F /  20.9 °C 29.57in /  1001.2hPa Calm     92.1% 0.00in /  0mm 0 W/m2
03:04 72.1 °F /  22.3 °C 69.9 °F /  21.1 °C 29.57in /  1001.2hPa Calm     93% 0.00in /  0mm 0 W/m2
03:09 72 °F /  22.2 °C 69.9 °F /  21.1 °C 29.57in /  1001.2hPa Calm     93% 0.00in /  0mm 0 W/m2
03:14 72 °F /  22.2 °C 69.8 °F /  21 °C 29.57in /  1001.2hPa Calm     92.7% 0.00in /  0mm 0 W/m2
03:19 72 °F /  22.2 °C 69.6 °F /  20.9 °C 29.57in /  1001.2hPa Calm     92% 0.00in /  0mm 0 W/m2
03:24 72 °F /  22.2 °C 69.8 °F /  21 °C 29.57in /  1001.2hPa Calm     92.8% 0.00in /  0mm 0 W/m2
03:29 71.9 °F /  22.2 °C 69.8 °F /  21 °C 29.57in /  1001.2hPa Calm     93% 0.00in /  0mm 0 W/m2
03:34 71.9 °F /  22.2 °C 69.8 °F /  21 °C 29.57in /  1001.2hPa Calm     93% 0.00in /  0mm 0 W/m2
03:39 71.9 °F /  22.2 °C 69.8 °F /  21 °C 29.57in /  1001.2hPa Calm     93% 0.00in /  0mm 0 W/m2
03:44 71.9 °F /  22.2 °C 69.8 °F /  21 °C 29.57in /  1001.2hPa Calm     93% 0.00in /  0mm 0 W/m2
03:49 71.9 °F /  22.2 °C 69.8 °F /  21 °C 29.57in /  1001.2hPa Calm     93% 0.00in /  0mm 0 W/m2
03:54 71.9 °F /  22.2 °C 69.8 °F /  21 °C 29.57in /  1001.2hPa Calm     93% 0.00in /  0mm 0 W/m2
03:59 71.8 °F /  22.1 °C 69.7 °F /  20.9 °C 29.57in /  1001.2hPa Calm     93% 0.00in /  0mm 0 W/m2
04:04 71.8 °F /  22.1 °C 69.7 °F /  20.9 °C 29.57in /  1001.2hPa Calm     93% 0.00in /  0mm 0 W/m2
04:09 71.7 °F /  22.1 °C 69.6 °F /  20.9 °C 29.57in /  1001.2hPa Calm     93% 0.00in /  0mm 0 W/m2
04:14 71.7 °F /  22.1 °C 69.6 °F /  20.9 °C 29.57in /  1001.2hPa Calm     93% 0.00in /  0mm 0 W/m2
04:19 71.6 °F /  22 °C 69.5 °F /  20.8 °C 29.57in /  1001.2hPa Calm     93% 0.00in /  0mm 0 W/m2
04:24 71.5 °F /  21.9 °C 69.4 °F /  20.8 °C 29.56in /  1000.9hPa Calm     93% 0.00in /  0mm 0 W/m2
04:29 71.5 °F /  21.9 °C 69.3 °F /  20.7 °C 29.56in /  1000.9hPa Calm     93% 0.00in /  0mm 0 W/m2
04:34 71.4 °F /  21.9 °C 69.3 °F /  20.7 °C 29.56in /  1000.9hPa Calm     93% 0.00in /  0mm 0 W/m2
04:39 71.3 °F /  21.8 °C 69.2 °F /  20.7 °C 29.56in /  1000.9hPa Calm     93% 0.00in /  0mm 0 W/m2
04:44 71.3 °F /  21.8 °C 69.2 °F /  20.7 °C 29.56in /  1000.9hPa Calm     93% 0.00in /  0mm 0 W/m2
04:49 71.2 °F /  21.8 °C 69.1 °F /  20.6 °C 29.56in /  1000.9hPa Calm     93% 0.00in /  0mm 0 W/m2
04:54 71.2 °F /  21.8 °C 69.1 °F /  20.6 °C 29.57in /  1001.2hPa Calm     93% 0.00in /  0mm 0 W/m2
04:59 71.2 °F /  21.8 °C 69.1 °F /  20.6 °C 29.57in /  1001.2hPa Calm     93% 0.00in /  0mm 0 W/m2
05:04 71.2 °F /  21.8 °C 69.2 °F /  20.7 °C 29.57in /  1001.2hPa Calm     93.3% 0.00in /  0mm 0 W/m2
05:09 71.2 °F /  21.8 °C 69.4 °F /  20.8 °C 29.57in /  1001.2hPa Calm     94% 0.00in /  0mm 0 W/m2
05:14 71.2 °F /  21.8 °C 69.4 °F /  20.8 °C 29.57in /  1001.2hPa Calm     94% 0.00in /  0mm 0 W/m2
05:19 71.2 °F /  21.8 °C 69.4 °F /  20.8 °C 29.58in /  1001.6hPa Calm     94% 0.00in /  0mm 0 W/m2
05:24 71.2 °F /  21.8 °C 69.4 °F /  20.8 °C 29.58in /  1001.6hPa Calm     94% 0.00in /  0mm 0 W/m2
05:29 71.1 °F /  21.7 °C 69.3 °F /  20.7 °C 29.58in /  1001.6hPa Calm     94% 0.00in /  0mm 5 W/m2
05:34 71.1 °F /  21.7 °C 69.3 °F /  20.7 °C 29.58in /  1001.6hPa Calm     94% 0.00in /  0mm 5 W/m2
05:39 71.1 °F /  21.7 °C 69.3 °F /  20.7 °C 29.59in /  1001.9hPa Calm     94% 0.00in /  0mm 7 W/m2
05:44 71.1 °F /  21.7 °C 69.3 °F /  20.7 °C 29.59in /  1001.9hPa Calm     94% 0.00in /  0mm 9 W/m2
05:49 71.1 °F /  21.7 °C 69.3 °F /  20.7 °C 29.59in /  1001.9hPa Calm     94% 0.00in /  0mm 11 W/m2
05:54 71.1 °F /  21.7 °C 69.3 °F /  20.7 °C 29.59in /  1001.9hPa Calm     94% 0.00in /  0mm 11 W/m2
05:59 71.1 °F /  21.7 °C 69.3 °F /  20.7 °C 29.59in /  1001.9hPa Calm     94% 0.00in /  0mm 11 W/m2
06:04 71.2 °F /  21.8 °C 69.4 °F /  20.8 °C 29.59in /  1001.9hPa Calm     94% 0.00in /  0mm 12 W/m2
06:09 71.2 °F /  21.8 °C 69.4 °F /  20.8 °C 29.59in /  1001.9hPa Calm     94% 0.00in /  0mm 19 W/m2
06:14 71.2 °F /  21.8 °C 69.4 °F /  20.8 °C 29.59in /  1001.9hPa Calm     94% 0.00in /  0mm 25 W/m2
06:19 71.3 °F /  21.8 °C 69.5 °F /  20.8 °C 29.59in /  1001.9hPa Calm     94% 0.00in /  0mm 26 W/m2
06:24 71.3 °F /  21.8 °C 69.5 °F /  20.8 °C 29.60in /  1002.3hPa Calm     94% 0.00in /  0mm 23 W/m2
06:29 71.4 °F /  21.9 °C 69.6 °F /  20.9 °C 29.60in /  1002.3hPa Calm     94% 0.00in /  0mm 23 W/m2
06:34 71.5 °F /  21.9 °C 69.9 °F /  21.1 °C 29.60in /  1002.3hPa Calm     94.5% 0.00in /  0mm 28 W/m2
06:39 71.5 °F /  21.9 °C 70 °F /  21.1 °C 29.61in /  1002.6hPa Calm     95% 0.00in /  0mm 39 W/m2
06:44 71.6 °F /  22 °C 70.1 °F /  21.2 °C 29.61in /  1002.6hPa Calm     95% 0.00in /  0mm 54 W/m2
06:49 71.7 °F /  22.1 °C 70.2 °F /  21.2 °C 29.61in /  1002.6hPa Calm     95% 0.00in /  0mm 56 W/m2
06:54 71.8 °F /  22.1 °C 70.2 °F /  21.2 °C 29.61in /  1002.6hPa Calm     94.7% 0.00in /  0mm 54 W/m2
06:59 72 °F /  22.2 °C 70.3 °F /  21.3 °C 29.61in /  1002.6hPa Calm     94.5% 0.00in /  0mm 58 W/m2
07:04 72.1 °F /  22.3 °C 70.6 °F /  21.4 °C 29.62in /  1002.9hPa Calm     95% 0.00in /  0mm 67 W/m2
07:09 72.3 °F /  22.4 °C 70.8 °F /  21.6 °C 29.62in /  1002.9hPa Calm     95% 0.00in /  0mm 69 W/m2
07:14 72.6 °F /  22.6 °C 71.1 °F /  21.7 °C 29.62in /  1002.9hPa Calm     95% 0.00in /  0mm 79 W/m2
07:19 73 °F /  22.8 °C 71.5 °F /  21.9 °C 29.63in /  1003.3hPa Calm     95% 0.00in /  0mm 60 W/m2
07:24 73.2 °F /  22.9 °C 71.4 °F /  21.9 °C 29.63in /  1003.3hPa Calm     94.4% 0.00in /  0mm 102 W/m2
07:29 73.3 °F /  22.9 °C 71.5 °F /  21.9 °C 29.63in /  1003.3hPa Calm     94% 0.00in /  0mm 165 W/m2
07:34 73.6 °F /  23.1 °C 71.8 °F /  22.1 °C 29.63in /  1003.3hPa Calm     94% 0.00in /  0mm 227 W/m2
07:39 74 °F /  23.3 °C 72 °F /  22.2 °C 29.62in /  1002.9hPa Calm     93.5% 0.00in /  0mm 227 W/m2
07:44 74.3 °F /  23.5 °C 71.7 °F /  22.1 °C 29.63in /  1003.3hPa SW 0.4mph /  0.6km/h 3mph /  4.8km/h 91.7% 0.00in /  0mm 54 W/m2
07:49 74.4 °F /  23.6 °C 71.3 °F /  21.8 °C 29.64in /  1003.6hPa WSW 0.3mph /  0.5km/h 4mph /  6.4km/h 90% 0.00in /  0mm 44 W/m2
07:54 74.6 °F /  23.7 °C 71.1 °F /  21.7 °C 29.64in /  1003.6hPa Calm   4mph /  6.4km/h 89% 0.00in /  0mm 49 W/m2
07:59 74.6 °F /  23.7 °C 71.2 °F /  21.8 °C 29.64in /  1003.6hPa West 0.1mph /  0.2km/h 4mph /  6.4km/h 89% 0.00in /  0mm 46 W/m2
08:00 74.6 °F /  23.7 °C 71.2 °F /  21.8 °C 29.64in /  1003.6hPa Calm   4mph /  6.4km/h 89% 0.00in /  0mm 44 W/m2
08:09 74.3 °F /  23.5 °C 69.6 °F /  20.9 °C 29.65in /  1003.9hPa ENE 0.1mph /  0.2km/h 2mph /  3.2km/h 85.5% 0.00in /  0mm 46 W/m2
08:14 74 °F /  23.3 °C 69 °F /  20.6 °C 29.65in /  1003.9hPa NNW 0.4mph /  0.6km/h 5mph /  8km/h 84.2% 0.00in /  0mm 44 W/m2
08:19 73.9 °F /  23.3 °C 68.4 °F /  20.2 °C 29.65in /  1003.9hPa NNW 0.2mph /  0.3km/h 5mph /  8km/h 83.1% 0.00in /  0mm 90 W/m2
08:24 73.8 °F /  23.2 °C 68.1 °F /  20.1 °C 29.65in /  1003.9hPa Calm   5mph /  8km/h 82.5% 0.00in /  0mm 81 W/m2
08:29 73.7 °F /  23.2 °C 68.1 °F /  20.1 °C 29.65in /  1003.9hPa NNW 0.3mph /  0.5km/h 5mph /  8km/h 82.5% 0.00in /  0mm 144 W/m2
08:34 73.8 °F /  23.2 °C 68.1 °F /  20.1 °C 29.65in /  1003.9hPa NNW 0.5mph /  0.8km/h 5mph /  8km/h 82.4% 0.00in /  0mm 202 W/m2
08:39 73.9 °F /  23.3 °C 67.6 °F /  19.8 °C 29.65in /  1003.9hPa NW 1.3mph /  2.1km/h 7mph /  11.3km/h 80.8% 0.00in /  0mm 612 W/m2
08:44 74.4 °F /  23.6 °C 68.1 °F /  20.1 °C 29.65in /  1003.9hPa NW 1.2mph /  1.9km/h 7mph /  11.3km/h 81% 0.00in /  0mm 612 W/m2
08:49 75.1 °F /  23.9 °C 68 °F /  20 °C 29.65in /  1003.9hPa NNW 1.4mph /  2.3km/h 7mph /  11.3km/h 78.7% 0.00in /  0mm 285 W/m2
08:54 75.5 °F /  24.2 °C 67.8 °F /  19.9 °C 29.65in /  1003.9hPa NW 1.4mph /  2.3km/h 11mph /  17.7km/h 76.9% 0.00in /  0mm 213 W/m2
08:59 75.6 °F /  24.2 °C 67.2 °F /  19.6 °C 29.66in /  1004.3hPa WNW 1.8mph /  2.9km/h 11mph /  17.7km/h 75.1% 0.00in /  0mm 265 W/m2
09:04 75.6 °F /  24.2 °C 67.3 °F /  19.6 °C 29.66in /  1004.3hPa NNW 1.2mph /  1.9km/h 11mph /  17.7km/h 75.5% 0.00in /  0mm 355 W/m2
09:09 75.6 °F /  24.2 °C 66.7 °F /  19.3 °C 29.66in /  1004.3hPa North 0.1mph /  0.2km/h 7mph /  11.3km/h 73.9% 0.00in /  0mm 417 W/m2
09:14 75.7 °F /  24.3 °C 66.5 °F /  19.2 °C 29.66in /  1004.3hPa NW 2.7mph /  4.3km/h 9mph /  14.5km/h 73.3% 0.00in /  0mm 220 W/m2
09:19 75.5 °F /  24.2 °C 65.8 °F /  18.8 °C 29.66in /  1004.3hPa NW 1.2mph /  1.9km/h 9mph /  14.5km/h 71.9% 0.00in /  0mm 169 W/m2
09:24 75.2 °F /  24 °C 65.5 °F /  18.6 °C 29.67in /  1004.6hPa NNW 2.5mph /  4km/h 14mph /  22.5km/h 71.9% 0.00in /  0mm 204 W/m2
09:29 74.7 °F /  23.7 °C 64.6 °F /  18.1 °C 29.67in /  1004.6hPa NNW 2.4mph /  3.9km/h 14mph /  22.5km/h 70.7% 0.00in /  0mm 156 W/m2
09:34 74.3 °F /  23.5 °C 64.7 °F /  18.2 °C 29.66in /  1004.3hPa NW 1.7mph /  2.7km/h 14mph /  22.5km/h 72% 0.00in /  0mm 134 W/m2
09:39 73.9 °F /  23.3 °C 64.3 °F /  17.9 °C 29.67in /  1004.6hPa NW 1.1mph /  1.8km/h 9mph /  14.5km/h 72% 0.00in /  0mm 134 W/m2
09:44 73.6 °F /  23.1 °C 64.6 °F /  18.1 °C 29.67in /  1004.6hPa NW 0.6mph /  1km/h 9mph /  14.5km/h 73.4% 0.00in /  0mm 264 W/m2
09:49 73.5 °F /  23.1 °C 64.7 °F /  18.2 °C 29.67in /  1004.6hPa NW 0.8mph /  1.3km/h 9mph /  14.5km/h 73.9% 0.00in /  0mm 264 W/m2
09:54 73.5 °F /  23.1 °C 64.9 °F /  18.3 °C 29.67in /  1004.6hPa NW 0.7mph /  1.1km/h 9mph /  14.5km/h 74.3% 0.00in /  0mm 236 W/m2
09:59 73.7 °F /  23.2 °C 65 °F /  18.3 °C 29.67in /  1004.6hPa NNW 2.1mph /  3.4km/h 9mph /  14.5km/h 74.4% 0.00in /  0mm 279 W/m2
10:04 73.8 °F /  23.2 °C 64.5 °F /  18.1 °C 29.67in /  1004.6hPa NNW 4.3mph /  6.9km/h 13mph /  20.9km/h 72.8% 0.00in /  0mm 279 W/m2
10:09 73.6 °F /  23.1 °C 64.1 °F /  17.8 °C 29.67in /  1004.6hPa NW 2.4mph /  3.9km/h 13mph /  20.9km/h 72% 0.00in /  0mm 200 W/m2
10:14 73.6 °F /  23.1 °C 64.8 °F /  18.2 °C 29.68in /  1005hPa Calm   13mph /  20.9km/h 74% 0.00in /  0mm 183 W/m2
10:19 73.6 °F /  23.1 °C 64.4 °F /  18 °C 29.68in /  1005hPa WNW 3.2mph /  5.1km/h 13mph /  20.9km/h 72.8% 0.00in /  0mm 297 W/m2
10:24 73.5 °F /  23.1 °C 63.7 °F /  17.6 °C 29.67in /  1004.6hPa NW 2.4mph /  3.9km/h 13mph /  20.9km/h 71.3% 0.00in /  0mm 313 W/m2
10:29 73.5 °F /  23.1 °C 64.2 °F /  17.9 °C 29.68in /  1005hPa WNW 2.5mph /  4km/h 13mph /  20.9km/h 72.7% 0.00in /  0mm 313 W/m2
10:34 73.6 °F /  23.1 °C 63.8 °F /  17.7 °C 29.68in /  1005hPa NW 4mph /  6.4km/h 14mph /  22.5km/h 71.5% 0.00in /  0mm 311 W/m2
10:39 73.5 °F /  23.1 °C 63.6 °F /  17.6 °C 29.68in /  1005hPa NW 4.5mph /  7.2km/h 14mph /  22.5km/h 71.2% 0.00in /  0mm 202 W/m2
10:44 73.4 °F /  23 °C 63.5 °F /  17.5 °C 29.68in /  1005hPa NW 1.5mph /  2.4km/h 14mph /  22.5km/h 71.3% 0.00in /  0mm 218 W/m2
10:49 73.2 °F /  22.9 °C 63.8 °F /  17.7 °C 29.68in /  1005hPa WNW 3.2mph /  5.1km/h 14mph /  22.5km/h 72.3% 0.00in /  0mm 218 W/m2
10:54 73.1 °F /  22.8 °C 63.3 °F /  17.4 °C 29.69in /  1005.3hPa WNW 4.2mph /  6.8km/h 14mph /  22.5km/h 71.3% 0.00in /  0mm 221 W/m2
10:59 72.9 °F /  22.7 °C 62.9 °F /  17.2 °C 29.69in /  1005.3hPa WNW 3.8mph /  6.1km/h 14mph /  22.5km/h 71% 0.00in /  0mm 334 W/m2
11:04 72.7 °F /  22.6 °C 62.8 °F /  17.1 °C 29.69in /  1005.3hPa WNW 3.1mph /  5km/h 14mph /  22.5km/h 71.2% 0.00in /  0mm 209 W/m2
11:09 72.4 °F /  22.4 °C 62.6 °F /  17 °C 29.69in /  1005.3hPa WNW 2.7mph /  4.3km/h 11mph /  17.7km/h 71.4% 0.00in /  0mm 132 W/m2
11:14 72.1 °F /  22.3 °C 62.2 °F /  16.8 °C 29.69in /  1005.3hPa WNW 1.7mph /  2.7km/h 11mph /  17.7km/h 71.2% 0.00in /  0mm 130 W/m2
11:19 71.8 °F /  22.1 °C 62.3 °F /  16.8 °C 29.69in /  1005.3hPa NW 1.3mph /  2.1km/h 11mph /  17.7km/h 72% 0.00in /  0mm 120 W/m2
11:24 71.7 °F /  22.1 °C 62.5 °F /  16.9 °C 29.70in /  1005.6hPa NW 0.8mph /  1.3km/h 11mph /  17.7km/h 72.9% 0.00in /  0mm 116 W/m2
11:29 71.5 °F /  21.9 °C 62.6 °F /  17 °C 29.69in /  1005.3hPa NNW 1.2mph /  1.9km/h 11mph /  17.7km/h 73.3% 0.00in /  0mm 123 W/m2
11:34 71.4 °F /  21.9 °C 62.1 °F /  16.7 °C 29.69in /  1005.3hPa NNW 1.6mph /  2.6km/h 11mph /  17.7km/h 72.3% 0.00in /  0mm 165 W/m2
11:39 71.3 °F /  21.8 °C 62 °F /  16.7 °C 29.68in /  1005hPa NNW 1.3mph /  2.1km/h 9mph /  14.5km/h 72.7% 0.00in /  0mm 179 W/m2
11:44 71.2 °F /  21.8 °C 62.7 °F /  17.1 °C 29.69in /  1005.3hPa NNW 1mph /  1.6km/h 9mph /  14.5km/h 74.6% 0.00in /  0mm 183 W/m2
11:49 71 °F /  21.7 °C 62.6 °F /  17 °C 29.69in /  1005.3hPa NW 0.9mph /  1.4km/h 9mph /  14.5km/h 74.7% 0.00in /  0mm 134 W/m2
11:54 70.8 °F /  21.6 °C 63.2 °F /  17.3 °C 29.69in /  1005.3hPa NW 0.4mph /  0.6km/h 9mph /  14.5km/h 76.7% 0.00in /  0mm 148 W/m2
11:59 70.8 °F /  21.6 °C 63.4 °F /  17.4 °C 29.69in /  1005.3hPa NW 0.6mph /  1km/h 9mph /  14.5km/h 77.5% 0.00in /  0mm 195 W/m2
12:00 70.8 °F /  21.6 °C 63.2 °F /  17.3 °C 29.69in /  1005.3hPa WNW 5.5mph /  8.9km/h 9mph /  14.5km/h 77% 0.00in /  0mm 195 W/m2
12:09 70.7 °F /  21.5 °C 62.6 °F /  17 °C 29.69in /  1005.3hPa North 1.8mph /  2.9km/h 7mph /  11.3km/h 75.4% 0.00in /  0mm 181 W/m2
12:14 70.7 °F /  21.5 °C 62.4 °F /  16.9 °C 29.69in /  1005.3hPa North 1mph /  1.6km/h 7mph /  11.3km/h 75.2% 0.00in /  0mm 241 W/m2
12:19 70.5 °F /  21.4 °C 62 °F /  16.7 °C 29.69in /  1005.3hPa NNW 0.8mph /  1.3km/h 7mph /  11.3km/h 74.5% 0.00in /  0mm 241 W/m2
12:24 70.6 °F /  21.4 °C 62.4 °F /  16.9 °C 29.69in /  1005.3hPa NW 0.5mph /  0.8km/h 7mph /  11.3km/h 75.3% 0.00in /  0mm 172 W/m2
12:29 70.7 °F /  21.5 °C 62.6 °F /  17 °C 29.69in /  1005.3hPa NNW 0.6mph /  1km/h 7mph /  11.3km/h 75.6% 0.00in /  0mm 178 W/m2
12:34 70.8 °F /  21.6 °C 61.9 °F /  16.6 °C 29.69in /  1005.3hPa NNW 2.1mph /  3.4km/h 7mph /  11.3km/h 73.4% 0.00in /  0mm 181 W/m2
12:39 70.8 °F /  21.6 °C 61.4 °F /  16.3 °C 29.70in /  1005.6hPa NW 2.3mph /  3.7km/h 11mph /  17.7km/h 72.1% 0.00in /  0mm 130 W/m2
12:44 70.6 °F /  21.4 °C 61.6 °F /  16.4 °C 29.70in /  1005.6hPa NW 1.4mph /  2.3km/h 11mph /  17.7km/h 73% 0.00in /  0mm 97 W/m2
12:49 70.4 °F /  21.3 °C 61.4 °F /  16.3 °C 29.71in /  1006hPa NNW 0.7mph /  1.1km/h 11mph /  17.7km/h 73% 0.00in /  0mm 74 W/m2
12:54 70.2 °F /  21.2 °C 61.4 °F /  16.3 °C 29.71in /  1006hPa NNW 0.7mph /  1.1km/h 11mph /  17.7km/h 73.6% 0.00in /  0mm 69 W/m2
12:59 69.9 °F /  21.1 °C 61.2 °F /  16.2 °C 29.72in /  1006.3hPa NW 1.5mph /  2.4km/h 11mph /  17.7km/h 73.8% 0.00in /  0mm 58 W/m2
13:04 69.7 °F /  20.9 °C 61.1 °F /  16.2 °C 29.71in /  1006hPa NW 0.4mph /  0.6km/h 11mph /  17.7km/h 74% 0.00in /  0mm 56 W/m2
13:09 69.5 °F /  20.8 °C 61.3 °F /  16.3 °C 29.71in /  1006hPa NW 0.6mph /  1km/h 6mph /  9.7km/h 75.1% 0.00in /  0mm 47 W/m2
13:14 69.5 °F /  20.8 °C 61.8 °F /  16.6 °C 29.71in /  1006hPa NW 0.9mph /  1.4km/h 9mph /  14.5km/h 76.5% 0.01in /  0.25mm 58 W/m2
13:19 69.3 °F /  20.7 °C 62.1 °F /  16.7 °C 29.71in /  1006hPa WNW 1.2mph /  1.9km/h 9mph /  14.5km/h 77.6% 0.01in /  0.25mm 53 W/m2
13:24 69 °F /  20.6 °C 62.3 °F /  16.8 °C 29.71in /  1006hPa NW 1mph /  1.6km/h 9mph /  14.5km/h 79.3% 0.01in /  0.25mm 47 W/m2
13:29 68.6 °F /  20.3 °C 62.4 °F /  16.9 °C 29.71in /  1006hPa NW 1mph /  1.6km/h 9mph /  14.5km/h 80.7% 0.01in /  0.25mm 88 W/m2
13:34 68.3 °F /  20.2 °C 62.5 °F /  16.9 °C 29.70in /  1005.6hPa NNE 0.2mph /  0.3km/h 9mph /  14.5km/h 81.7% 0.01in /  0.25mm 105 W/m2
13:39 68 °F /  20 °C 62.4 °F /  16.9 °C 29.69in /  1005.3hPa NNW 0.6mph /  1km/h 4mph /  6.4km/h 82.3% 0.01in /  0.25mm 105 W/m2
13:44 67.7 °F /  19.8 °C 62.1 °F /  16.7 °C 29.69in /  1005.3hPa NNW 0.8mph /  1.3km/h 4mph /  6.4km/h 82.3% 0.01in /  0.25mm 63 W/m2
13:49 67.5 °F /  19.7 °C 62.2 °F /  16.8 °C 29.69in /  1005.3hPa NW 0.7mph /  1.1km/h 4mph /  6.4km/h 83% 0.01in /  0.25mm 35 W/m2
13:54 67.3 °F /  19.6 °C 61.9 °F /  16.6 °C 29.69in /  1005.3hPa NW 0.7mph /  1.1km/h 5mph /  8km/h 83% 0.02in /  0.51mm 42 W/m2
13:59 67 °F /  19.4 °C 62 °F /  16.7 °C 29.69in /  1005.3hPa NW 1.4mph /  2.3km/h 9mph /  14.5km/h 83.9% 0.02in /  0.51mm 42 W/m2
14:04 66.6 °F /  19.2 °C 61.9 °F /  16.6 °C 29.70in /  1005.6hPa NW 1.9mph /  3.1km/h 9mph /  14.5km/h 84.7% 0.02in /  0.51mm 37 W/m2
14:09 66.2 °F /  19 °C 61.5 °F /  16.4 °C 29.70in /  1005.6hPa NW 1.4mph /  2.3km/h 6mph /  9.7km/h 85% 0.02in /  0.51mm 37 W/m2
14:14 65.8 °F /  18.8 °C 61.1 °F /  16.2 °C 29.70in /  1005.6hPa NW 1.3mph /  2.1km/h 10mph /  16.1km/h 85% 0.02in /  0.51mm 53 W/m2
14:19 65.4 °F /  18.6 °C 60.8 °F /  16 °C 29.70in /  1005.6hPa NW 0.5mph /  0.8km/h 10mph /  16.1km/h 85% 0.02in /  0.51mm 58 W/m2
14:24 65.2 °F /  18.4 °C 60.6 °F /  15.9 °C 29.70in /  1005.6hPa NW 0.7mph /  1.1km/h 10mph /  16.1km/h 85.1% 0.02in /  0.51mm 56 W/m2
14:29 65.1 °F /  18.4 °C 60.8 °F /  16 °C 29.70in /  1005.6hPa NW 0.2mph /  0.3km/h 10mph /  16.1km/h 86% 0.02in /  0.51mm 42 W/m2
14:34 65 °F /  18.3 °C 60.9 °F /  16.1 °C 29.70in /  1005.6hPa Calm   10mph /  16.1km/h 86.5% 0.02in /  0.51mm 37 W/m2
14:39 64.9 °F /  18.3 °C 61 °F /  16.1 °C 29.70in /  1005.6hPa NW 0.1mph /  0.2km/h 3mph /  4.8km/h 87% 0.01in /  0.25mm 47 W/m2
14:44 64.9 °F /  18.3 °C 60.9 °F /  16.1 °C 29.69in /  1005.3hPa NW 0.2mph /  0.3km/h 3mph /  4.8km/h 87% 0.02in /  0.51mm 63 W/m2
14:49 64.8 °F /  18.2 °C 60.9 °F /  16.1 °C 29.69in /  1005.3hPa North 0.2mph /  0.3km/h 5mph /  8km/h 87.2% 0.03in /  0.76mm 70 W/m2
14:54 64.6 °F /  18.1 °C 60.9 °F /  16.1 °C 29.69in /  1005.3hPa North 0.4mph /  0.6km/h 5mph /  8km/h 87.6% 0.03in /  0.76mm 53 W/m2
14:59 64.5 °F /  18.1 °C 61.1 °F /  16.2 °C 29.69in /  1005.3hPa NNW 0.2mph /  0.3km/h 5mph /  8km/h 88.7% 0.04in /  1.02mm 58 W/m2
15:04 64.4 °F /  18 °C 61.2 °F /  16.2 °C 29.69in /  1005.3hPa Calm   5mph /  8km/h 89.2% 0.04in /  1.02mm 47 W/m2
15:09 64.4 °F /  18 °C 61.4 °F /  16.3 °C 29.69in /  1005.3hPa NNW 0.1mph /  0.2km/h 3mph /  4.8km/h 90% 0.03in /  0.76mm 33 W/m2
15:14 64.3 °F /  17.9 °C 61.3 °F /  16.3 °C 29.69in /  1005.3hPa Calm   3mph /  4.8km/h 90% 0.04in /  1.02mm 47 W/m2
15:19 64 °F /  17.8 °C 61.1 °F /  16.2 °C 29.70in /  1005.6hPa NNW 0.5mph /  0.8km/h 4mph /  6.4km/h 90% 0.04in /  1.02mm 53 W/m2
15:24 63.9 °F /  17.7 °C 61 °F /  16.1 °C 29.71in /  1006hPa Calm   4mph /  6.4km/h 90.3% 0.05in /  1.27mm 56 W/m2
15:29 63.9 °F /  17.7 °C 61.2 °F /  16.2 °C 29.71in /  1006hPa Calm   4mph /  6.4km/h 91% 0.06in /  1.52mm 63 W/m2
15:34 64 °F /  17.8 °C 61.3 °F /  16.3 °C 29.71in /  1006hPa Calm   4mph /  6.4km/h 91% 0.06in /  1.52mm 77 W/m2
15:39 63.9 °F /  17.7 °C 61.3 °F /  16.3 °C 29.71in /  1006hPa Calm     91.1% 0.06in /  1.52mm 74 W/m2
15:44 63.9 °F /  17.7 °C 61.5 °F /  16.4 °C 29.71in /  1006hPa Calm     92% 0.07in /  1.78mm 100 W/m2
15:49 64 °F /  17.8 °C 61.6 °F /  16.4 °C 29.70in /  1005.6hPa Calm     92% 0.07in /  1.78mm 100 W/m2
15:54 63.9 °F /  17.7 °C 61.6 °F /  16.4 °C 29.70in /  1005.6hPa Calm     92% 0.07in /  1.78mm 88 W/m2
15:59 64 °F /  17.8 °C 61.7 °F /  16.5 °C 29.70in /  1005.6hPa Calm     92% 0.07in /  1.78mm 86 W/m2
16:00 64.1 °F /  17.8 °C 61.7 °F /  16.5 °C 29.69in /  1005.3hPa Calm     92% 0.07in /  1.78mm 77 W/m2
16:09 64.1 °F /  17.8 °C 61.7 °F /  16.5 °C 29.69in /  1005.3hPa North 0.1mph /  0.2km/h 2mph /  3.2km/h 92% 0.04in /  1.02mm 62 W/m2
16:14 63.9 °F /  17.7 °C 61.5 °F /  16.4 °C 29.70in /  1005.6hPa Calm   2mph /  3.2km/h 92% 0.04in /  1.02mm 51 W/m2
16:19 63.9 °F /  17.7 °C 61.5 °F /  16.4 °C 29.70in /  1005.6hPa Calm   2mph /  3.2km/h 92% 0.04in /  1.02mm 67 W/m2
16:24 63.9 °F /  17.7 °C 61.5 °F /  16.4 °C 29.70in /  1005.6hPa Calm   2mph /  3.2km/h 92% 0.04in /  1.02mm 70 W/m2
16:29 63.9 °F /  17.7 °C 61.6 °F /  16.4 °C 29.71in /  1006hPa Calm   2mph /  3.2km/h 92.2% 0.04in /  1.02mm 76 W/m2
16:34 64.1 °F /  17.8 °C 62 °F /  16.7 °C 29.70in /  1005.6hPa Calm   2mph /  3.2km/h 93% 0.04in /  1.02mm 60 W/m2
16:39 64.3 °F /  17.9 °C 62.2 °F /  16.8 °C 29.69in /  1005.3hPa Calm     93% 0.02in /  0.51mm 62 W/m2
16:44 64.3 °F /  17.9 °C 62.2 °F /  16.8 °C 29.70in /  1005.6hPa Calm     93% 0.03in /  0.76mm 60 W/m2
16:49 64.3 °F /  17.9 °C 62.2 °F /  16.8 °C 29.71in /  1006hPa Calm     93% 0.03in /  0.76mm 32 W/m2
16:54 64.3 °F /  17.9 °C 62.2 °F /  16.8 °C 29.71in /  1006hPa NNE 0.2mph /  0.3km/h 2mph /  3.2km/h 93% 0.03in /  0.76mm 37 W/m2
16:59 64.2 °F /  17.9 °C 62.1 °F /  16.7 °C 29.71in /  1006hPa North 0.1mph /  0.2km/h 2mph /  3.2km/h 93% 0.03in /  0.76mm 39 W/m2
17:04 64.1 °F /  17.8 °C 62.1 °F /  16.7 °C 29.71in /  1006hPa NW 0.5mph /  0.8km/h 4mph /  6.4km/h 93% 0.03in /  0.76mm 56 W/m2
17:09 64.1 °F /  17.8 °C 62 °F /  16.7 °C 29.71in /  1006hPa NW 0.5mph /  0.8km/h 4mph /  6.4km/h 93% 0.02in /  0.51mm 56 W/m2
17:14 64.2 °F /  17.9 °C 62.1 °F /  16.7 °C 29.69in /  1005.3hPa NW 1mph /  1.6km/h 4mph /  6.4km/h 93% 0.02in /  0.51mm 51 W/m2
17:19 64.1 °F /  17.8 °C 62 °F /  16.7 °C 29.69in /  1005.3hPa NW 0.8mph /  1.3km/h 5mph /  8km/h 93% 0.03in /  0.76mm 32 W/m2
17:24 63.9 °F /  17.7 °C 61.8 °F /  16.6 °C 29.74in /  1007hPa WNW 1.6mph /  2.6km/h 9mph /  14.5km/h 93% 0.03in /  0.76mm 30 W/m2
17:29 63.8 °F /  17.7 °C 61.7 °F /  16.5 °C 29.75in /  1007.3hPa West 2.5mph /  4km/h 9mph /  14.5km/h 93% 0.03in /  0.76mm 35 W/m2
17:34 63.8 °F /  17.7 °C 61.7 °F /  16.5 °C 29.74in /  1007hPa WNW 4.4mph /  7.1km/h 13mph /  20.9km/h 93% 0.03in /  0.76mm 42 W/m2
17:39 63.7 °F /  17.6 °C 61.7 °F /  16.5 °C 29.73in /  1006.7hPa WNW 2.5mph /  4km/h 13mph /  20.9km/h 93% 0.03in /  0.76mm 42 W/m2
17:44 63.7 °F /  17.6 °C 61.6 °F /  16.4 °C 29.74in /  1007hPa WNW 0.5mph /  0.8km/h 13mph /  20.9km/h 93% 0.04in /  1.02mm 33 W/m2
17:49 63.5 °F /  17.5 °C 61.5 °F /  16.4 °C 29.74in /  1007hPa Calm   13mph /  20.9km/h 93% 0.04in /  1.02mm 30 W/m2
17:54 63.4 °F /  17.4 °C 61.3 °F /  16.3 °C 29.74in /  1007hPa Calm   13mph /  20.9km/h 93% 0.04in /  1.02mm 28 W/m2
17:59 63.1 °F /  17.3 °C 60.9 °F /  16.1 °C 29.73in /  1006.7hPa WNW 0.1mph /  0.2km/h 13mph /  20.9km/h 92.4% 0.04in /  1.02mm 23 W/m2
18:04 63 °F /  17.2 °C 60.8 °F /  16 °C 29.72in /  1006.3hPa NW 0.1mph /  0.2km/h 13mph /  20.9km/h 92.5% 0.04in /  1.02mm 25 W/m2
18:09 63.1 °F /  17.3 °C 61 °F /  16.1 °C 29.72in /  1006.3hPa NW 0.3mph /  0.5km/h 4mph /  6.4km/h 93% 0.02in /  0.51mm 25 W/m2
18:14 63.1 °F /  17.3 °C 61.1 °F /  16.2 °C 29.72in /  1006.3hPa Calm   4mph /  6.4km/h 93% 0.02in /  0.51mm 25 W/m2
18:19 63 °F /  17.2 °C 61 °F /  16.1 °C 29.72in /  1006.3hPa Calm   4mph /  6.4km/h 93% 0.02in /  0.51mm 30 W/m2
18:24 63 °F /  17.2 °C 61 °F /  16.1 °C 29.71in /  1006hPa Calm   4mph /  6.4km/h 93% 0.02in /  0.51mm 30 W/m2
18:29 62.9 °F /  17.2 °C 60.8 °F /  16 °C 29.70in /  1005.6hPa Calm   4mph /  6.4km/h 92.7% 0.02in /  0.51mm 25 W/m2
18:34 62.7 °F /  17.1 °C 60.4 °F /  15.8 °C 29.70in /  1005.6hPa Calm   4mph /  6.4km/h 92% 0.02in /  0.51mm 21 W/m2
18:39 62.6 °F /  17 °C 60.6 °F /  15.9 °C 29.69in /  1005.3hPa Calm   1mph /  1.6km/h 93% 0.01in /  0.25mm 19 W/m2
18:44 62.7 °F /  17.1 °C 60.6 °F /  15.9 °C 29.68in /  1005hPa Calm   1mph /  1.6km/h 93% 0.01in /  0.25mm 16 W/m2
18:49 62.4 °F /  16.9 °C 60.3 °F /  15.7 °C 29.68in /  1005hPa Calm   1mph /  1.6km/h 92.7% 0.02in /  0.51mm 12 W/m2
18:54 62.2 °F /  16.8 °C 59.9 °F /  15.5 °C 29.67in /  1004.6hPa Calm   1mph /  1.6km/h 92% 0.02in /  0.51mm 12 W/m2
18:59 62.1 °F /  16.7 °C 59.7 °F /  15.4 °C 29.67in /  1004.6hPa ENE 0.7mph /  1.1km/h 4mph /  6.4km/h 92% 0.02in /  0.51mm 11 W/m2
19:04 62 °F /  16.7 °C 59.9 °F /  15.5 °C 29.67in /  1004.6hPa ENE 0.2mph /  0.3km/h 4mph /  6.4km/h 92.9% 0.02in /  0.51mm 7 W/m2
19:09 61.9 °F /  16.6 °C 59.9 °F /  15.5 °C 29.68in /  1005hPa ENE 0.3mph /  0.5km/h 3mph /  4.8km/h 93% 0.02in /  0.51mm 9 W/m2
19:14 61.8 °F /  16.6 °C 59.8 °F /  15.4 °C 29.70in /  1005.6hPa Calm   3mph /  4.8km/h 93% 0.02in /  0.51mm 7 W/m2
19:19 61.8 °F /  16.6 °C 59.8 °F /  15.4 °C 29.72in /  1006.3hPa Calm   3mph /  4.8km/h 93% 0.03in /  0.76mm 7 W/m2
19:24 61.9 °F /  16.6 °C 59.9 °F /  15.5 °C 29.73in /  1006.7hPa WNW 0.7mph /  1.1km/h 5mph /  8km/h 93% 0.03in /  0.76mm 5 W/m2
19:29 61.9 °F /  16.6 °C 59.9 °F /  15.5 °C 29.73in /  1006.7hPa Calm   5mph /  8km/h 93% 0.04in /  1.02mm 0 W/m2
19:34 61.9 °F /  16.6 °C 59.8 °F /  15.4 °C 29.72in /  1006.3hPa Calm   5mph /  8km/h 93% 0.05in /  1.27mm 7 W/m2
19:39 61.7 °F /  16.5 °C 59.7 °F /  15.4 °C 29.72in /  1006.3hPa NW 0.8mph /  1.3km/h 6mph /  9.7km/h 93% 0.06in /  1.52mm 9 W/m2
19:44 61.7 °F /  16.5 °C 59.6 °F /  15.3 °C 29.73in /  1006.7hPa NW 0.1mph /  0.2km/h 6mph /  9.7km/h 93% 0.06in /  1.52mm 5 W/m2
19:49 61.6 °F /  16.4 °C 59.5 °F /  15.3 °C 29.73in /  1006.7hPa NW 0.1mph /  0.2km/h 6mph /  9.7km/h 93% 0.06in /  1.52mm 0 W/m2
19:54 61.4 °F /  16.3 °C 59.4 °F /  15.2 °C 29.73in /  1006.7hPa NW 1.3mph /  2.1km/h 7mph /  11.3km/h 93% 0.06in /  1.52mm 0 W/m2
19:59 61.3 °F /  16.3 °C 59.3 °F /  15.2 °C 29.74in /  1007hPa NW 0.4mph /  0.6km/h 7mph /  11.3km/h 93% 0.06in /  1.52mm 0 W/m2
20:00 61.3 °F /  16.3 °C 59.3 °F /  15.2 °C 29.74in /  1007hPa Calm   7mph /  11.3km/h 93% 0.06in /  1.52mm 0 W/m2
20:09 61.1 °F /  16.2 °C 59.1 °F /  15.1 °C 29.74in /  1007hPa WNW 1.9mph /  3.1km/h 9mph /  14.5km/h 93% 0.05in /  1.27mm 7 W/m2
20:14 61 °F /  16.1 °C 59 °F /  15 °C 29.74in /  1007hPa NNE 0.1mph /  0.2km/h 9mph /  14.5km/h 93% 0.05in /  1.27mm 7 W/m2
20:19 61 °F /  16.1 °C 59 °F /  15 °C 29.74in /  1007hPa WNW 3mph /  4.8km/h 9mph /  14.5km/h 93% 0.05in /  1.27mm 7 W/m2
20:24 60.8 °F /  16 °C 58.8 °F /  14.9 °C 29.75in /  1007.3hPa NW 1.4mph /  2.3km/h 10mph /  16.1km/h 93% 0.05in /  1.27mm 5 W/m2
20:29 60.7 °F /  15.9 °C 58.7 °F /  14.8 °C 29.75in /  1007.3hPa West 1.5mph /  2.4km/h 10mph /  16.1km/h 93% 0.05in /  1.27mm 0 W/m2
20:34 60.7 °F /  15.9 °C 58.7 °F /  14.8 °C 29.75in /  1007.3hPa NW 1.8mph /  2.9km/h 13mph /  20.9km/h 93% 0.05in /  1.27mm 0 W/m2
20:39 60.6 °F /  15.9 °C 58.6 °F /  14.8 °C 29.75in /  1007.3hPa NNW 1.4mph /  2.3km/h 13mph /  20.9km/h 92.9% 0.02in /  0.51mm 0 W/m2
20:44 60.5 °F /  15.8 °C 58.2 °F /  14.6 °C 29.76in /  1007.7hPa NW 1.2mph /  1.9km/h 13mph /  20.9km/h 92% 0.02in /  0.51mm 0 W/m2
20:49 60.5 °F /  15.8 °C 58.2 °F /  14.6 °C 29.76in /  1007.7hPa NW 0.9mph /  1.4km/h 13mph /  20.9km/h 92% 0.02in /  0.51mm 0 W/m2
20:54 60.5 °F /  15.8 °C 58.2 °F /  14.6 °C 29.77in /  1008hPa NW 0.9mph /  1.4km/h 13mph /  20.9km/h 92% 0.02in /  0.51mm 0 W/m2
20:59 60.5 °F /  15.8 °C 58.2 °F /  14.6 °C 29.77in /  1008hPa Calm   13mph /  20.9km/h 92% 0.02in /  0.51mm 0 W/m2
21:04 60.5 °F /  15.8 °C 58.1 °F /  14.5 °C 29.77in /  1008hPa Calm   13mph /  20.9km/h 92% 0.02in /  0.51mm 0 W/m2
21:09 60.4 °F /  15.8 °C 58.1 °F /  14.5 °C 29.77in /  1008hPa NW 1.6mph /  2.6km/h 10mph /  16.1km/h 92% 0.00in /  0mm 0 W/m2
21:14 60.3 °F /  15.7 °C 58 °F /  14.4 °C 29.78in /  1008.4hPa WNW 0.3mph /  0.5km/h 10mph /  16.1km/h 92% 0.00in /  0mm 0 W/m2
21:19 60.3 °F /  15.7 °C 58 °F /  14.4 °C 29.79in /  1008.7hPa NW 0.1mph /  0.2km/h 10mph /  16.1km/h 92% 0.00in /  0mm 0 W/m2
21:24 60.3 °F /  15.7 °C 57.8 °F /  14.3 °C 29.79in /  1008.7hPa NNW 0.9mph /  1.4km/h 10mph /  16.1km/h 91.5% 0.00in /  0mm 0 W/m2
21:29 60.2 °F /  15.7 °C 57.6 °F /  14.2 °C 29.80in /  1009hPa North 0.2mph /  0.3km/h 10mph /  16.1km/h 91% 0.00in /  0mm 0 W/m2
21:34 60.2 °F /  15.7 °C 57.6 °F /  14.2 °C 29.80in /  1009hPa NW 1.1mph /  1.8km/h 10mph /  16.1km/h 91% 0.00in /  0mm 0 W/m2
21:39 60.2 °F /  15.7 °C 57.6 °F /  14.2 °C 29.81in /  1009.4hPa WNW 0.1mph /  0.2km/h 10mph /  16.1km/h 91% 0.00in /  0mm 0 W/m2
21:44 60.2 °F /  15.7 °C 57.4 °F /  14.1 °C 29.81in /  1009.4hPa West 3mph /  4.8km/h 10mph /  16.1km/h 90.5% 0.00in /  0mm 0 W/m2
21:49 60.2 °F /  15.7 °C 57.2 °F /  14 °C 29.82in /  1009.7hPa WNW 3.7mph /  6km/h 14mph /  22.5km/h 90% 0.00in /  0mm 0 W/m2
21:54 60.2 °F /  15.7 °C 57.3 °F /  14.1 °C 29.82in /  1009.7hPa West 1.2mph /  1.9km/h 14mph /  22.5km/h 90% 0.00in /  0mm 0 W/m2
21:59 60.1 °F /  15.6 °C 57.1 °F /  13.9 °C 29.82in /  1009.7hPa NW 1.9mph /  3.1km/h 14mph /  22.5km/h 89.8% 0.00in /  0mm 0 W/m2
22:03 60.1 °F /  15.6 °C 56.8 °F /  13.8 °C 29.82in /  1009.7hPa WNW 1.3mph /  2.1km/h 14mph /  22.5km/h 89% 0.00in /  0mm 0 W/m2
Hartford County Weather
Compliments of Weather Underground - 4 mb